Aeroporto :
LOGIN :

Iscrizione | Disclaimer

   EN    FR    IT 

 










Sommario :    VFR   VFR Marginale   IFR   IFR Intensivo   IFR Molto Intensivo
Visibilità : 
Base nubi : 
>= 8 km
>= 3000ft
5 / 8 km
1000 / 3000 ft
1500m / 5 km
500 / 1000 ft
800 / 1500m
200 / 500 ft
< 800m
< 200 ft
Simboli :   Temporali  Nebbia  Neve Forte  Precipitazioni Forti  Vento > 20 kt
SIGMETs :   Varie  Temporali  Ghiacco  Turbolenza  Onda orograficha  Ceneri Vulcaniche






- Altitudine del aeroporto : 336 ft
- Codice IATA : GCI


EGJB - Guernsey

ULTIMO METAR :
  • 151020Z 25016KT 0800 R27/0800U FG SCT000 BKN001 18/18 Q1005

METARs OBSOLETI :
  • 150950Z 25012KT 0200 R27/0200N FG BKN000 18/18 Q1005
  • 150920Z 24010KT 0150 R27/0150N FG OVC000 18/18 Q1004
  • 150850Z 28007KT 1600 1100W R27/1200U VCSH VCFG FEW000 BKN001 19/19 Q1004
  • 150820Z 26009KT 0200 R27/0200N VCSH FG BKN000 18/18 Q1004
  • 150750Z 27009KT 0300 R27/0250N FG BKN000 18/18 Q1004

TAF TAF EGJB
Valido dal 15 a 09 ore il 15 a 18 ore UTC


150758Z 1509/1518 25010KT 2000 BR SCT001 BKN003
TEMPO 1509/1511 0200 FG BKN000
PROB30
TEMPO 1509/1513 5000 -SHRA BKN040CB
BECMG 1511/1513 8000 NSW SCT005
PROB30
TEMPO 1512/1515 3000 BR BKN003
ATIS : +44 1481 238 957



MetMap, La meteo Aeronautica in un colpo d'occhio ! - Copyright ORBIFLY Dicembre 2007 - Disclaimer

ORBIFLY MET'MAP TEAM :

Programmazione e sviluppo : Alexandra Zaïnal
Concezione : Baudouin d'Aumeries
Supporto tecnico e logistico : Manuel Goepfert
Aiuto : Marc-Olivier Méhu
Aiuto per la traduzione : Arnaldo La Scala




FONTI E CREDITI :

   NOAA